Time;durP1;ratioP1;P1;durP2;ratioP2;P2;SDS_P1;SDS_P2;PMS_P1;PMS_P2;Temp;Humidity;BMP_temperature;BMP_pressure;BME280_temperature;BME280_humidity;BME280_pressure;Samples;Min_cycle;Max_cycle;Signal;HPM_P1;HPM_P2
2023/05/28 00:05:02;;;;;;;4.40;2.80;;;;;;;9.09;45.87;100193.27;436450;1251;139398;-59
2023/05/28 00:15:10;;;;;;;4.60;1.80;;;;;;;8.98;46.00;100186.10;436440;1251;139874;-59
2023/05/28 00:25:16;;;;;;;3.00;1.60;;;;;;;8.89;46.28;100182.86;436716;1253;138782;-59
2023/05/28 00:35:22;;;;;;;3.30;1.60;;;;;;;8.77;46.93;100169.61;436514;1251;138466;-60
2023/05/28 00:45:27;;;;;;;3.30;1.70;;;;;;;8.71;47.08;100164.84;436632;1253;139141;-61
2023/05/28 00:55:33;;;;;;;3.10;2.10;;;;;;;8.64;47.35;100171.78;436652;1249;138707;-61
2023/05/28 01:05:39;;;;;;;3.90;1.90;;;;;;;8.54;47.80;100178.54;436839;1253;139882;-60
2023/05/28 01:15:45;;;;;;;1.90;1.60;;;;;;;8.45;48.13;100175.96;436681;1251;140350;-60
2023/05/28 01:25:53;;;;;;;3.80;1.90;;;;;;;8.28;48.66;100166.94;436611;1251;140412;-60
2023/05/28 01:36:01;;;;;;;2.70;1.60;;;;;;;8.22;48.76;100153.40;437012;1251;139930;-60
2023/05/28 01:46:08;;;;;;;3.00;2.10;;;;;;;8.22;48.99;100144.18;436683;1251;139872;-59
2023/05/28 01:56:14;;;;;;;3.60;1.80;;;;;;;8.23;49.26;100141.52;436716;1251;139074;-59
2023/05/28 02:06:20;;;;;;;2.50;2.00;;;;;;;8.22;49.64;100135.81;436370;1251;140108;-60
2023/05/28 02:16:27;;;;;;;3.90;1.60;;;;;;;8.09;49.76;100132.89;436995;1251;138469;-59
2023/05/28 02:26:33;;;;;;;4.40;1.50;;;;;;;8.11;49.91;100127.38;436410;1253;139463;-61
2023/05/28 02:36:39;;;;;;;6.30;1.40;;;;;;;8.15;49.94;100115.70;436398;1251;139113;-59
2023/05/28 02:46:44;;;;;;;3.40;2.40;;;;;;;8.17;49.90;100112.63;436624;1251;138264;-61
2023/05/28 02:56:50;;;;;;;3.80;1.60;;;;;;;8.24;49.80;100112.34;436473;1253;138844;-60
2023/05/28 03:06:56;;;;;;;3.70;1.60;;;;;;;8.57;49.78;100118.52;436269;1253;138948;-60
2023/05/28 03:17:02;;;;;;;7.10;2.60;;;;;;;10.21;48.65;100116.68;436269;1254;139116;-59
2023/05/28 03:27:08;;;;;;;5.70;2.40;;;;;;;11.51;45.98;100116.38;436409;1253;139052;-59
2023/05/28 03:37:14;;;;;;;4.70;1.70;;;;;;;10.91;45.74;100118.98;436260;1253;139546;-60
2023/05/28 03:47:20;;;;;;;3.10;1.20;;;;;;;10.87;45.98;100120.39;436338;1253;140135;-60
2023/05/28 03:57:25;;;;;;;4.50;1.60;;;;;;;11.26;45.70;100117.46;436612;1253;139032;-60
2023/05/28 04:07:31;;;;;;;3.00;1.40;;;;;;;12.37;44.92;100113.39;436731;1253;139352;-59
2023/05/28 04:17:37;;;;;;;4.80;1.60;;;;;;;15.75;42.27;100108.63;436641;1251;138629;-59
2023/05/28 04:27:44;;;;;;;3.30;1.00;;;;;;;20.77;37.41;100095.40;436844;1253;138694;-60
2023/05/28 04:37:50;;;;;;;4.00;2.40;;;;;;;23.75;33.12;100094.35;438133;1254;139163;-61
2023/05/28 04:47:57;;;;;;;3.10;1.90;;;;;;;26.38;29.88;100088.05;436637;1253;139637;-59
2023/05/28 04:58:03;;;;;;;2.40;1.50;;;;;;;27.88;27.15;100087.95;436393;1253;138918;-59
2023/05/28 05:08:12;;;;;;;2.50;1.70;;;;;;;30.14;24.99;100077.66;436485;1254;139821;-60
2023/05/28 05:18:18;;;;;;;5.50;1.50;;;;;;;32.72;22.72;100076.06;436746;1254;138996;-59
2023/05/28 05:28:24;;;;;;;1.40;1.00;;;;;;;33.80;21.33;100071.52;436524;1255;139019;-59
2023/05/28 05:38:32;;;;;;;2.80;1.10;;;;;;;35.19;19.84;100070.38;436541;1253;139731;-59
2023/05/28 05:48:38;;;;;;;3.10;1.00;;;;;;;36.16;18.93;100068.43;436684;1251;139470;-60
2023/05/28 05:58:43;;;;;;;1.70;1.20;;;;;;;37.63;17.58;100071.06;436488;1253;138713;-59
2023/05/28 06:08:49;;;;;;;6.40;1.60;;;;;;;38.08;16.89;100069.35;436362;1254;139527;-60
2023/05/28 06:18:55;;;;;;;1.70;1.10;;;;;;;39.99;16.21;100066.17;437059;1254;140088;-59
2023/05/28 06:29:01;;;;;;;2.20;1.10;;;;;;;41.11;15.40;100069.36;436579;1251;138654;-58
2023/05/28 06:39:08;;;;;;;3.20;1.10;;;;;;;43.14;14.76;100064.63;436613;1250;139695;-59
2023/05/28 06:49:14;;;;;;;2.70;1.10;;;;;;;44.63;13.79;100057.80;437233;1253;139088;-68
2023/05/28 06:59:20;;;;;;;3.50;1.40;;;;;;;45.25;13.25;100054.37;436374;1251;139933;-68
2023/05/28 07:09:26;;;;;;;1.80;1.10;;;;;;;45.91;12.62;100056.50;436332;1254;139181;-68
2023/05/28 07:19:31;;;;;;;5.10;1.50;;;;;;;47.13;12.29;100052.99;436320;1251;139436;-69
2023/05/28 07:29:37;;;;;;;2.10;1.40;;;;;;;48.23;11.52;100053.27;436684;1254;139910;-69
2023/05/28 07:39:43;;;;;;;2.40;1.40;;;;;;;47.26;11.32;100042.04;436889;1253;138518;-70
2023/05/28 07:49:49;;;;;;;5.60;1.50;;;;;;;46.55;11.34;100036.64;436751;1253;139601;-70
2023/05/28 07:59:55;;;;;;;3.00;0.80;;;;;;;41.95;11.91;100033.42;436375;1251;139644;-68
2023/05/28 08:10:01;;;;;;;2.40;0.70;;;;;;;33.68;14.59;100029.21;436294;1252;139304;-69
2023/05/28 08:20:11;;;;;;;4.60;0.80;;;;;;;29.59;16.74;100028.12;436344;1251;139193;-69
2023/05/28 08:30:17;;;;;;;1.90;1.00;;;;;;;27.06;18.53;100029.45;436648;1251;140332;-69
2023/05/28 08:40:23;;;;;;;1.50;1.20;;;;;;;25.96;19.69;100019.58;436973;1251;140407;-69
2023/05/28 08:50:30;;;;;;;2.20;1.00;;;;;;;25.22;20.59;100015.04;436562;1253;139542;-69
2023/05/28 09:00:38;;;;;;;0.80;0.80;;;;;;;24.67;21.07;100014.95;436257;1254;138910;-69
2023/05/28 09:10:43;;;;;;;2.40;0.90;;;;;;;23.99;21.97;100015.97;436153;1253;139152;-69
2023/05/28 09:20:50;;;;;;;3.70;0.90;;;;;;;23.89;22.40;100011.56;436411;1253;138807;-70
2023/05/28 09:31:02;;;;;;;2.30;0.60;;;;;;;23.66;22.56;99999.95;436169;1251;140175;-70
2023/05/28 09:41:20;;;;;;;2.00;0.70;;;;;;;23.05;23.15;99990.27;436301;1252;139263;-69
2023/05/28 09:51:28;;;;;;;2.00;0.90;;;;;;;22.62;23.85;99982.14;436681;1252;139132;-69
2023/05/28 10:01:43;;;;;;;2.50;1.20;;;;;;;22.01;24.50;99972.33;436288;1251;140737;-69
2023/05/28 10:11:56;;;;;;;2.70;1.30;;;;;;;21.31;25.09;99973.57;436845;1251;138895;-68
2023/05/28 10:22:02;;;;;;;2.90;0.90;;;;;;;21.00;25.65;99964.59;436257;1251;138501;-69
2023/05/28 10:32:08;;;;;;;0.90;0.80;;;;;;;20.77;25.79;99957.83;436670;1253;138670;-70
2023/05/28 10:42:17;;;;;;;3.90;1.00;;;;;;;20.53;26.27;99958.73;436559;1251;140595;-69
2023/05/28 10:52:25;;;;;;;3.90;0.60;;;;;;;20.26;26.53;99948.83;436496;1254;139595;-70
2023/05/28 11:02:35;;;;;;;3.80;0.90;;;;;;;20.20;27.15;99945.15;436384;1251;139824;-68
2023/05/28 11:12:42;;;;;;;5.20;1.30;;;;;;;20.03;27.25;99938.96;436892;1250;138785;-72
2023/05/28 11:22:49;;;;;;;1.60;0.60;;;;;;;20.07;27.80;99939.84;436649;1251;139080;-72
2023/05/28 11:32:56;;;;;;;1.50;1.10;;;;;;;19.81;27.85;99930.57;436798;1251;139134;-72
2023/05/28 11:43:04;;;;;;;4.10;1.10;;;;;;;19.93;28.00;99928.39;436178;1253;141030;-71
2023/05/28 11:53:11;;;;;;;1.60;0.80;;;;;;;19.92;28.24;99917.16;436971;1251;139434;-71
2023/05/28 12:03:16;;;;;;;3.00;0.80;;;;;;;20.01;28.45;99908.79;436434;1253;138552;-71
2023/05/28 12:13:24;;;;;;;2.10;0.70;;;;;;;19.94;28.64;99907.11;436385;1251;138731;-73
2023/05/28 12:23:29;;;;;;;1.20;0.70;;;;;;;19.85;29.05;99889.21;436122;1251;139082;-71
2023/05/28 12:33:35;;;;;;;7.20;1.40;;;;;;;20.00;29.01;99881.70;436381;1253;139579;-73
2023/05/28 12:43:42;;;;;;;2.00;0.50;;;;;;;20.11;29.35;99876.73;436226;1253;138934;-72
2023/05/28 12:53:48;;;;;;;3.60;0.70;;;;;;;20.15;28.94;99858.00;436665;1250;139335;-73
2023/05/28 13:03:54;;;;;;;3.50;1.00;;;;;;;20.08;29.15;99855.31;437341;1254;139059;-73
2023/05/28 13:14:00;;;;;;;3.10;0.90;;;;;;;20.17;29.41;99848.59;436375;1251;138599;-70
2023/05/28 13:24:07;;;;;;;4.30;0.80;;;;;;;20.24;29.32;99835.64;436478;1251;138870;-70
2023/05/28 13:34:13;;;;;;;4.60;1.20;;;;;;;20.32;29.24;99827.84;437219;1251;138386;-70
2023/05/28 13:44:20;;;;;;;3.40;0.90;;;;;;;20.38;29.38;99815.95;436441;1251;138310;-70
2023/05/28 13:54:26;;;;;;;2.30;1.10;;;;;;;20.25;29.47;99808.66;436410;1253;140407;-68
2023/05/28 14:04:32;;;;;;;1.10;0.90;;;;;;;20.18;29.48;99806.58;436932;1251;138909;-68
2023/05/28 14:14:38;;;;;;;4.90;0.80;;;;;;;20.20;29.70;99802.61;436519;1251;138463;-67
2023/05/28 14:24:43;;;;;;;1.60;0.90;;;;;;;20.24;30.01;99786.06;436479;1251;140206;-68
2023/05/28 14:34:49;;;;;;;4.20;0.90;;;;;;;20.18;29.79;99773.98;436586;1251;140717;-69
2023/05/28 14:44:55;;;;;;;2.20;0.90;;;;;;;20.18;29.98;99763.84;437141;1251;139480;-68
2023/05/28 14:55:01;;;;;;;7.40;1.50;;;;;;;20.15;30.17;99758.84;436879;1249;139572;-69
2023/05/28 15:05:08;;;;;;;1.20;0.70;;;;;;;20.05;30.17;99757.17;436284;1250;139501;-69
2023/05/28 15:15:15;;;;;;;1.10;0.70;;;;;;;20.00;30.11;99749.85;436733;1251;138916;-66
2023/05/28 15:25:23;;;;;;;2.50;0.80;;;;;;;19.90;30.30;99745.53;436550;1251;139132;-66
2023/05/28 15:35:29;;;;;;;5.20;1.60;;;;;;;19.75;30.53;99752.20;436807;1251;138854;-68
2023/05/28 15:45:36;;;;;;;1.00;0.70;;;;;;;19.67;30.63;99751.20;436736;1253;138688;-67
2023/05/28 15:55:42;;;;;;;4.20;1.00;;;;;;;19.58;30.61;99747.66;436640;1251;139263;-67
2023/05/28 16:05:49;;;;;;;1.50;1.20;;;;;;;19.49;30.74;99735.91;436201;1253;139017;-66
2023/05/28 16:15:57;;;;;;;1.10;0.80;;;;;;;19.44;30.58;99731.90;436704;1250;138450;-67
2023/05/28 16:26:04;;;;;;;0.90;0.80;;;;;;;19.33;30.52;99732.36;436600;1253;139331;-66
2023/05/28 16:36:12;;;;;;;2.80;0.80;;;;;;;19.24;30.83;99730.58;436934;1251;139009;-67
2023/05/28 16:46:18;;;;;;;;;;;;;;;19.22;30.90;99734.48;437244;1251;139272;-69
2023/05/28 16:56:29;;;;;;;2.80;1.20;;;;;;;19.13;30.93;99735.50;436831;1253;125115;-71
2023/05/28 17:06:35;;;;;;;2.20;1.00;;;;;;;19.05;31.06;99734.02;439642;1250;138989;-70
2023/05/28 17:16:41;;;;;;;5.20;1.10;;;;;;;18.89;31.57;99736.34;439501;1253;138623;-69
2023/05/28 17:26:48;;;;;;;4.80;1.00;;;;;;;18.69;31.81;99729.02;439151;1250;139024;-70
2023/05/28 17:36:53;;;;;;;1.50;0.90;;;;;;;18.42;32.19;99726.13;439143;1253;139693;-70
2023/05/28 17:46:59;;;;;;;1.50;0.90;;;;;;;18.15;32.68;99724.41;439501;1251;138787;-71
2023/05/28 17:57:06;;;;;;;0.90;0.80;;;;;;;17.89;33.09;99724.29;439811;1251;138614;-70
2023/05/28 18:07:12;;;;;;;1.80;0.80;;;;;;;17.60;33.36;99728.80;439714;1251;138282;-70
2023/05/28 18:17:23;;;;;;;3.40;1.00;;;;;;;17.44;33.46;99733.61;439479;1251;140145;-68
2023/05/28 18:27:29;;;;;;;3.10;1.90;;;;;;;17.09;33.66;99733.90;439467;1251;138202;-69
2023/05/28 18:37:35;;;;;;;6.00;1.20;;;;;;;16.69;34.14;99737.55;439247;1251;138285;-70
2023/05/28 18:47:41;;;;;;;4.60;2.00;;;;;;;16.32;35.02;99736.88;436451;1251;138814;-68
2023/05/28 18:57:47;;;;;;;2.20;1.30;;;;;;;15.96;35.76;99747.48;436760;1251;138279;-67
2023/05/28 19:07:53;;;;;;;4.20;1.70;;;;;;;15.68;36.54;99748.69;439543;1251;139110;-69
2023/05/28 19:17:59;;;;;;;7.10;2.80;;;;;;;15.34;38.21;99754.48;439813;1251;139710;-68
2023/05/28 19:28:05;;;;;;;8.30;3.20;;;;;;;14.91;40.37;99766.55;439667;1251;138185;-69
2023/05/28 19:38:11;;;;;;;13.30;8.90;;;;;;;14.47;42.19;99768.27;439369;1253;139465;-70
2023/05/28 19:48:17;;;;;;;19.20;10.30;;;;;;;14.01;43.65;99767.02;439539;1251;139043;-68
2023/05/28 19:58:22;;;;;;;12.90;8.20;;;;;;;13.61;45.05;99772.79;438430;1251;139595;-70
2023/05/28 20:08:28;;;;;;;15.20;10.10;;;;;;;13.26;46.33;99785.46;436992;1253;138457;-70
2023/05/28 20:18:36;;;;;;;13.00;7.50;;;;;;;12.91;47.80;99788.85;439241;1251;141495;-70
2023/05/28 20:28:42;;;;;;;18.40;8.60;;;;;;;12.58;48.43;99797.96;439220;1250;138998;-69
2023/05/28 20:38:49;;;;;;;15.50;9.40;;;;;;;12.32;49.78;99799.41;437831;1254;139219;-69
2023/05/28 20:48:55;;;;;;;12.00;6.60;;;;;;;12.06;50.87;99790.42;436462;1254;139458;-70
2023/05/28 20:59:03;;;;;;;12.80;8.40;;;;;;;11.79;51.98;99792.49;438935;1251;138844;-70
2023/05/28 21:09:09;;;;;;;16.80;8.60;;;;;;;11.51;53.29;99801.50;438907;1254;138586;-70
2023/05/28 21:19:15;;;;;;;14.40;6.60;;;;;;;11.24;54.31;99807.08;439012;1254;140347;-71
2023/05/28 21:29:20;;;;;;;9.90;6.90;;;;;;;11.01;55.29;99815.52;439007;1250;139206;-69
2023/05/28 21:39:26;;;;;;;10.30;6.00;;;;;;;10.78;55.94;99811.86;438041;1256;138523;-66
2023/05/28 21:49:32;;;;;;;9.30;6.40;;;;;;;10.57;56.77;99805.20;447229;1255;140833;-67
2023/05/28 21:59:38;;;;;;;11.50;6.50;;;;;;;10.37;57.37;99804.30;436167;1254;139083;-67
2023/05/28 22:09:44;;;;;;;12.10;5.90;;;;;;;10.16;58.28;99806.92;436507;1255;140084;-64
2023/05/28 22:19:51;;;;;;;11.50;5.30;;;;;;;9.96;59.06;99805.77;436114;1255;139558;-64
2023/05/28 22:29:57;;;;;;;9.70;5.00;;;;;;;9.77;59.54;99806.87;436564;1255;139599;-64
2023/05/28 22:40:04;;;;;;;8.30;4.60;;;;;;;9.60;60.33;99802.91;436840;1251;140313;-65
2023/05/28 22:50:12;;;;;;;7.30;4.90;;;;;;;9.38;61.02;99800.66;436393;1255;138998;-63
2023/05/28 23:00:20;;;;;;;5.50;3.40;;;;;;;9.17;61.57;99792.38;436502;1251;139577;-63
2023/05/28 23:10:26;;;;;;;9.50;3.60;;;;;;;9.00;62.36;99793.45;436231;1254;139447;-64
2023/05/28 23:20:32;;;;;;;9.40;4.10;;;;;;;8.84;62.76;99800.06;436720;1256;140710;-64
2023/05/28 23:30:39;;;;;;;7.20;4.70;;;;;;;8.70;63.29;99802.39;436403;1256;139835;-64
2023/05/28 23:40:45;;;;;;;11.70;5.20;;;;;;;8.53;63.67;99793.81;436350;1256;139218;-63
2023/05/28 23:50:50;;;;;;;9.00;4.20;;;;;;;8.39;64.49;99784.42;436337;1251;141249;-64
